createdAt,value
2022-08-30T00:00:06.508Z,49.40
2022-08-30T00:02:36.186Z,49.50
2022-08-30T00:05:04.337Z,49.50
2022-08-30T00:07:32.061Z,49.50
2022-08-30T00:09:59.770Z,49.50
2022-08-30T00:12:27.630Z,49.40
2022-08-30T00:14:56.189Z,49.50
2022-08-30T00:17:23.919Z,49.50
2022-08-30T00:19:53.008Z,49.50
2022-08-30T00:22:20.735Z,49.50
2022-08-30T00:24:49.423Z,49.50
2022-08-30T00:27:17.156Z,49.50
2022-08-30T00:29:45.088Z,49.50
2022-08-30T00:32:13.330Z,49.50
2022-08-30T00:34:41.094Z,49.50
2022-08-30T00:37:10.214Z,49.50
2022-08-30T00:39:37.990Z,49.40
2022-08-30T00:42:05.925Z,49.50
2022-08-30T00:44:33.687Z,49.50
2022-08-30T00:47:01.422Z,49.50
2022-08-30T00:49:29.382Z,49.40
2022-08-30T00:51:57.188Z,49.40
2022-08-30T00:54:26.377Z,49.50
2022-08-30T00:56:54.149Z,49.50
2022-08-30T00:59:24.171Z,49.50
2022-08-30T01:01:52.048Z,49.40
2022-08-30T01:04:21.296Z,49.50
2022-08-30T01:06:49.032Z,49.40
2022-08-30T01:09:16.822Z,49.50
2022-08-30T01:11:45.911Z,49.50
2022-08-30T01:14:13.759Z,49.40
2022-08-30T01:16:43.230Z,49.40
2022-08-30T01:19:13.760Z,49.40
2022-08-30T01:21:43.635Z,49.40
2022-08-30T01:24:12.836Z,49.40
2022-08-30T01:26:40.736Z,49.40
2022-08-30T01:29:09.632Z,49.40
2022-08-30T01:31:37.519Z,49.40
2022-08-30T01:34:07.538Z,49.40
2022-08-30T01:36:35.319Z,49.40
2022-08-30T01:39:03.076Z,49.40
2022-08-30T01:41:33.096Z,49.40
2022-08-30T01:44:01.863Z,49.70
2022-08-30T01:46:31.190Z,49.40
2022-08-30T01:48:59.120Z,49.40
2022-08-30T01:51:28.700Z,49.20
2022-08-30T01:53:56.519Z,49.20
2022-08-30T01:56:24.413Z,49.20
2022-08-30T01:58:54.068Z,49.20
2022-08-30T02:01:23.185Z,49.40
2022-08-30T02:03:51.021Z,49.30
2022-08-30T02:06:19.849Z,49.50
2022-08-30T02:08:47.789Z,49.30
2022-08-30T02:11:15.617Z,49.50
2022-08-30T02:13:44.095Z,49.50
2022-08-30T02:16:16.077Z,49.50
2022-08-30T02:18:43.876Z,49.50
2022-08-30T02:21:11.636Z,49.50
2022-08-30T02:23:39.384Z,49.50
2022-08-30T02:26:07.130Z,49.40
2022-08-30T02:28:34.875Z,49.50
2022-08-30T02:31:10.721Z,49.50
2022-08-30T02:33:40.585Z,49.50
2022-08-30T02:36:08.518Z,49.40
2022-08-30T02:38:36.323Z,49.30
2022-08-30T02:41:04.259Z,49.30
2022-08-30T02:43:31.978Z,49.30
2022-08-30T02:45:59.822Z,49.40
2022-08-30T02:48:27.645Z,49.50
2022-08-30T02:50:56.705Z,49.50
2022-08-30T02:53:24.446Z,49.70
2022-08-30T02:55:55.322Z,49.50
2022-08-30T02:58:25.574Z,49.50
2022-08-30T03:00:53.446Z,49.50
2022-08-30T03:03:21.681Z,49.50
2022-08-30T03:05:49.511Z,49.50
2022-08-30T03:08:18.548Z,49.60
2022-08-30T03:10:46.260Z,49.50
2022-08-30T03:13:13.971Z,49.50
2022-08-30T03:15:41.683Z,49.70
2022-08-30T03:18:10.395Z,49.50
2022-08-30T03:20:38.664Z,49.70
2022-08-30T03:23:06.434Z,49.60
2022-08-30T03:25:35.589Z,49.60
2022-08-30T03:28:03.717Z,49.60
2022-08-30T03:30:31.431Z,49.40
2022-08-30T03:32:59.241Z,49.50
2022-08-30T03:35:27.333Z,49.50
2022-08-30T03:38:01.325Z,49.50
2022-08-30T03:40:29.315Z,49.50
2022-08-30T03:42:59.093Z,49.50
2022-08-30T03:45:26.845Z,49.50
2022-08-30T03:47:54.579Z,49.50
2022-08-30T03:50:22.315Z,49.50
2022-08-30T03:52:50.042Z,49.60
2022-08-30T03:55:17.935Z,49.50
2022-08-30T03:57:45.687Z,49.60
2022-08-30T04:00:15.800Z,49.60
2022-08-30T04:02:43.686Z,49.70
2022-08-30T04:05:11.669Z,49.50
2022-08-30T04:07:41.700Z,49.60
2022-08-30T04:10:10.543Z,49.60
2022-08-30T04:12:38.828Z,49.60
2022-08-30T04:15:08.064Z,49.60
2022-08-30T04:17:37.216Z,49.70
2022-08-30T04:20:05.350Z,49.60
2022-08-30T04:22:33.083Z,49.60
2022-08-30T04:25:00.825Z,49.70
2022-08-30T04:27:28.621Z,49.70
2022-08-30T04:29:56.867Z,49.70
2022-08-30T04:32:24.628Z,49.70
2022-08-30T04:34:56.397Z,49.70
2022-08-30T04:37:24.096Z,49.70
2022-08-30T04:39:55.201Z,49.70
2022-08-30T04:42:22.919Z,49.70
2022-08-30T04:44:50.892Z,49.80
2022-08-30T04:47:18.708Z,49.70
2022-08-30T04:49:46.800Z,49.80
2022-08-30T04:52:15.891Z,49.80
2022-08-30T04:54:43.620Z,49.70
2022-08-30T04:57:11.380Z,49.70
2022-08-30T04:59:39.808Z,49.70
2022-08-30T05:02:07.605Z,49.70
2022-08-30T05:04:35.408Z,49.70
2022-08-30T05:07:03.116Z,49.80
2022-08-30T05:09:32.216Z,49.80
2022-08-30T05:11:59.924Z,49.80
2022-08-30T05:14:27.641Z,49.80
2022-08-30T05:16:55.441Z,49.80
2022-08-30T05:19:24.024Z,49.80
2022-08-30T05:21:51.792Z,49.70
2022-08-30T05:24:19.522Z,49.80
2022-08-30T05:29:21.544Z,49.80
2022-08-30T05:31:49.405Z,49.70
2022-08-30T05:34:17.245Z,49.70
2022-08-30T05:36:45.032Z,49.90
2022-08-30T05:39:12.804Z,49.60
2022-08-30T05:41:40.836Z,49.70
2022-08-30T05:44:10.348Z,49.70
2022-08-30T05:46:39.486Z,49.70
2022-08-30T05:49:07.882Z,49.70
2022-08-30T05:51:37.354Z,50.30
2022-08-30T05:54:10.929Z,49.60
2022-08-30T05:56:40.847Z,49.60
2022-08-30T05:59:10.072Z,49.50
2022-08-30T06:01:39.620Z,49.50
2022-08-30T06:04:08.208Z,49.50
2022-08-30T06:06:37.124Z,49.40
2022-08-30T06:09:06.043Z,49.40
2022-08-30T06:11:34.010Z,49.20
2022-08-30T06:14:01.820Z,49.20
2022-08-30T06:16:30.971Z,49.20
2022-08-30T06:18:59.256Z,49.10
2022-08-30T06:21:27.929Z,49.00
2022-08-30T06:23:55.840Z,49.00
2022-08-30T06:26:23.869Z,48.90
2022-08-30T06:28:51.819Z,48.80
2022-08-30T06:31:20.336Z,48.70
2022-08-30T06:33:49.600Z,48.70
2022-08-30T06:36:19.135Z,48.60
2022-08-30T06:38:47.004Z,48.40
2022-08-30T06:41:16.678Z,48.40
2022-08-30T06:43:48.911Z,48.40
2022-08-30T06:46:19.124Z,48.20
2022-08-30T06:48:48.361Z,48.10
2022-08-30T06:51:20.811Z,48.10
2022-08-30T06:53:49.779Z,47.80
2022-08-30T06:56:17.616Z,47.90
2022-08-30T06:58:45.669Z,48.00
2022-08-30T07:01:13.785Z,47.70
2022-08-30T07:03:41.503Z,47.90
2022-08-30T07:06:09.477Z,48.00
2022-08-30T07:08:38.833Z,48.10
2022-08-30T07:11:07.465Z,47.90
2022-08-30T07:13:35.288Z,48.00
2022-08-30T07:16:03.235Z,48.00
2022-08-30T07:18:48.624Z,48.20
2022-08-30T07:21:17.091Z,47.70
2022-08-30T07:23:50.228Z,47.60
2022-08-30T07:26:22.452Z,47.50
2022-08-30T07:28:56.042Z,47.80
2022-08-30T07:31:24.230Z,47.60
2022-08-30T07:33:52.240Z,47.60
2022-08-30T07:36:21.763Z,47.70
2022-08-30T07:38:51.120Z,47.70
2022-08-30T07:41:20.441Z,48.20
2022-08-30T07:43:48.402Z,47.50
2022-08-30T07:46:16.292Z,47.50
2022-08-30T07:48:44.174Z,47.50
2022-08-30T07:51:13.104Z,47.50
2022-08-30T07:53:40.933Z,47.50
2022-08-30T07:56:10.097Z,47.50
2022-08-30T07:58:38.471Z,47.50
2022-08-30T08:01:07.408Z,47.60
2022-08-30T08:03:35.317Z,47.50
2022-08-30T08:06:03.788Z,47.60
2022-08-30T08:08:31.700Z,47.50
2022-08-30T08:10:59.492Z,47.60
2022-08-30T08:13:32.635Z,47.60
2022-08-30T08:16:00.619Z,47.50
2022-08-30T08:18:28.449Z,47.60
2022-08-30T08:20:56.922Z,47.50
2022-08-30T08:23:24.799Z,47.60
2022-08-30T08:25:52.508Z,47.60
2022-08-30T08:28:20.279Z,47.70
2022-08-30T08:30:50.069Z,47.60
2022-08-30T08:33:18.681Z,47.60
2022-08-30T08:35:46.484Z,47.60
2022-08-30T08:38:14.183Z,47.70
2022-08-30T08:40:44.905Z,47.80
2022-08-30T08:43:13.513Z,48.50
2022-08-30T08:45:44.644Z,49.00
2022-08-30T08:48:19.720Z,49.40
2022-08-30T08:51:02.727Z,49.30
2022-08-30T08:53:45.594Z,48.70
2022-08-30T08:56:16.441Z,48.70
2022-08-30T08:58:45.977Z,48.70
2022-08-30T09:01:15.241Z,48.40
2022-08-30T09:03:44.425Z,48.70
2022-08-30T09:06:24.507Z,48.70
2022-08-30T09:08:52.244Z,48.50
2022-08-30T09:11:26.071Z,48.50
2022-08-30T09:13:54.571Z,49.00
2022-08-30T09:16:54.108Z,48.50
2022-08-30T09:19:34.458Z,48.40
2022-08-30T09:22:04.839Z,48.40
2022-08-30T09:24:40.592Z,48.60
2022-08-30T09:27:24.035Z,48.70
2022-08-30T09:29:57.647Z,48.60
2022-08-30T09:32:33.683Z,48.50
2022-08-30T09:35:02.721Z,48.40
2022-08-30T09:37:45.643Z,48.40
2022-08-30T09:40:16.581Z,48.30
2022-08-30T09:42:59.238Z,48.50
2022-08-30T09:45:31.776Z,48.30
2022-08-30T09:47:59.752Z,48.30
2022-08-30T09:50:30.872Z,48.50
2022-08-30T09:53:09.696Z,48.40
2022-08-30T09:55:47.595Z,48.30
2022-08-30T09:58:20.016Z,48.00
2022-08-30T10:00:49.799Z,48.00
2022-08-30T10:03:35.682Z,47.90
2022-08-30T10:06:13.936Z,47.70
2022-08-30T10:08:58.569Z,48.00
2022-08-30T10:11:29.539Z,47.80
2022-08-30T10:14:34.690Z,48.10
2022-08-30T10:17:06.561Z,47.90
2022-08-30T10:19:47.381Z,48.10
2022-08-30T10:22:17.942Z,48.30
2022-08-30T10:24:48.984Z,48.30
2022-08-30T10:27:18.800Z,48.30
2022-08-30T10:29:48.540Z,48.00
2022-08-30T10:32:20.172Z,47.80
2022-08-30T10:34:51.073Z,47.40
2022-08-30T10:37:22.246Z,47.40
2022-08-30T10:39:51.247Z,47.50
2022-08-30T10:42:20.892Z,47.50
2022-08-30T10:44:50.591Z,47.10
2022-08-30T10:47:23.823Z,47.20
2022-08-30T10:49:54.405Z,46.70
2022-08-30T10:52:26.733Z,46.90
2022-08-30T10:54:56.323Z,46.90
2022-08-30T10:57:25.573Z,47.00
2022-08-30T10:59:55.634Z,46.70
2022-08-30T11:02:56.919Z,46.50
2022-08-30T11:05:35.500Z,46.30
2022-08-30T11:08:22.111Z,47.10
2022-08-30T11:10:54.549Z,46.90
2022-08-30T11:13:23.921Z,46.80
2022-08-30T11:15:59.058Z,46.00
2022-08-30T11:18:29.128Z,46.20
2022-08-30T11:21:18.483Z,46.20
2022-08-30T11:24:11.112Z,45.70
2022-08-30T11:26:59.663Z,45.70
2022-08-30T11:29:36.425Z,45.80
2022-08-30T11:32:46.813Z,45.50
2022-08-30T11:35:29.964Z,45.70
2022-08-30T11:37:57.674Z,45.90
2022-08-30T11:40:48.222Z,45.90
2022-08-30T11:43:51.420Z,46.20
2022-08-30T11:46:24.231Z,46.00
2022-08-30T11:48:55.422Z,46.50
2022-08-30T11:52:23.644Z,46.70
2022-08-30T11:54:52.797Z,46.90
2022-08-30T11:57:26.225Z,46.40
2022-08-30T11:59:59.208Z,46.20
2022-08-30T12:03:00.594Z,46.40
2022-08-30T12:05:54.572Z,46.00
2022-08-30T12:08:44.776Z,47.10
2022-08-30T12:12:00.779Z,46.70
2022-08-30T12:14:51.926Z,46.50
2022-08-30T12:17:46.509Z,46.40
2022-08-30T12:20:18.361Z,46.70
2022-08-30T12:22:46.360Z,46.80
2022-08-30T12:25:16.676Z,47.00
2022-08-30T12:27:44.500Z,46.30
2022-08-30T12:30:14.070Z,46.90
2022-08-30T12:32:45.426Z,47.30
2022-08-30T12:35:19.454Z,46.40
2022-08-30T12:37:56.224Z,47.00
2022-08-30T12:40:24.505Z,46.70
2022-08-30T12:42:53.297Z,46.60
2022-08-30T12:45:23.525Z,47.50
2022-08-30T12:47:52.527Z,47.50
2022-08-30T12:50:21.961Z,47.20
2022-08-30T12:52:56.692Z,47.00
2022-08-30T12:55:26.713Z,47.40
2022-08-30T12:58:01.077Z,48.00
2022-08-30T13:00:31.483Z,47.80
2022-08-30T13:03:00.710Z,47.80
2022-08-30T13:05:47.757Z,47.50
2022-08-30T13:08:19.496Z,47.60
2022-08-30T13:10:51.813Z,46.70
2022-08-30T13:13:28.914Z,46.90
2022-08-30T13:15:57.957Z,46.80
2022-08-30T13:18:30.437Z,47.10
2022-08-30T13:21:11.885Z,46.90
2022-08-30T13:23:40.402Z,46.40
2022-08-30T13:26:08.478Z,46.70
2022-08-30T13:28:48.700Z,46.10
2022-08-30T13:31:18.025Z,45.60
2022-08-30T13:33:46.569Z,45.80
2022-08-30T13:36:14.518Z,45.90
2022-08-30T13:38:43.030Z,46.10
2022-08-30T13:41:11.003Z,46.00
2022-08-30T13:46:28.410Z,46.20
2022-08-30T13:48:59.563Z,45.70
2022-08-30T13:51:27.289Z,45.40
2022-08-30T13:53:55.172Z,45.40
2022-08-30T13:56:24.693Z,45.80
2022-08-30T13:58:52.886Z,45.80
2022-08-30T14:01:20.676Z,46.00
2022-08-30T14:07:11.832Z,45.90
2022-08-30T14:09:25.123Z,45.90
2022-08-30T14:11:52.847Z,45.60
2022-08-30T14:14:41.953Z,45.00
2022-08-30T14:17:08.940Z,45.30
2022-08-30T14:19:38.278Z,45.40
2022-08-30T14:22:06.183Z,45.50
2022-08-30T14:24:34.096Z,45.60
2022-08-30T14:27:02.452Z,45.00
2022-08-30T14:29:31.550Z,44.60
2022-08-30T14:32:00.320Z,44.30
2022-08-30T14:34:28.272Z,44.60
2022-08-30T14:36:58.164Z,44.80
2022-08-30T14:39:26.988Z,44.40
2022-08-30T14:41:55.494Z,44.80
2022-08-30T14:44:23.366Z,44.00
2022-08-30T14:46:51.763Z,44.20
2022-08-30T14:49:21.444Z,44.00
2022-08-30T14:51:49.276Z,43.60
2022-08-30T14:54:18.700Z,43.40
2022-08-30T14:56:46.396Z,43.60
2022-08-30T14:59:14.308Z,43.50
2022-08-30T15:01:42.156Z,43.50
2022-08-30T15:04:10.073Z,43.80
2022-08-30T15:06:38.303Z,43.80
2022-08-30T15:09:06.154Z,43.60
2022-08-30T15:11:35.307Z,43.60
2022-08-30T15:14:03.000Z,43.30
2022-08-30T15:16:32.191Z,43.50
2022-08-30T15:19:00.192Z,43.60
2022-08-30T15:21:30.497Z,43.50
2022-08-30T15:23:58.317Z,43.10
2022-08-30T15:26:26.187Z,43.30
2022-08-30T15:28:56.743Z,43.40
2022-08-30T15:31:25.848Z,43.20
2022-08-30T15:33:53.555Z,43.00
2022-08-30T15:36:21.243Z,43.20
2022-08-30T15:38:48.967Z,43.50
2022-08-30T15:41:16.678Z,43.20
2022-08-30T15:43:44.371Z,43.20
2022-08-30T15:46:18.827Z,43.00
2022-08-30T15:48:46.993Z,43.00
2022-08-30T15:51:16.573Z,42.90
2022-08-30T15:53:44.328Z,43.10
2022-08-30T15:56:12.095Z,43.10
2022-08-30T15:58:40.001Z,43.20
2022-08-30T16:01:08.915Z,43.00
2022-08-30T16:03:40.284Z,43.20
2022-08-30T16:06:11.770Z,42.90
2022-08-30T16:08:39.522Z,42.80
2022-08-30T16:11:07.540Z,43.00
2022-08-30T16:13:35.232Z,42.90
2022-08-30T16:16:03.434Z,43.10
2022-08-30T16:18:31.317Z,43.00
2022-08-30T16:21:05.019Z,42.50
2022-08-30T16:23:33.578Z,42.50
2022-08-30T16:26:04.228Z,42.30
2022-08-30T16:28:32.268Z,42.40
2022-08-30T16:31:00.033Z,42.00
2022-08-30T16:33:29.905Z,42.10
2022-08-30T16:35:57.770Z,41.90
2022-08-30T16:38:27.015Z,42.40
2022-08-30T16:40:54.958Z,42.20
2022-08-30T16:43:24.371Z,42.50
2022-08-30T16:45:52.429Z,41.50
2022-08-30T16:48:21.480Z,41.30
2022-08-30T16:50:49.182Z,41.40
2022-08-30T16:53:16.960Z,41.00
2022-08-30T16:55:46.087Z,41.10
2022-08-30T16:58:18.713Z,40.50
2022-08-30T17:00:48.654Z,40.60
2022-08-30T17:03:16.570Z,40.50
2022-08-30T17:05:44.979Z,40.90
2022-08-30T17:08:12.751Z,40.70
2022-08-30T17:10:43.807Z,40.20
2022-08-30T17:13:19.000Z,40.80
2022-08-30T17:15:47.975Z,40.30
2022-08-30T17:18:16.399Z,39.70
2022-08-30T17:20:44.522Z,40.20
2022-08-30T17:23:12.401Z,40.00
2022-08-30T17:25:41.163Z,40.20
2022-08-30T17:28:08.869Z,40.00
2022-08-30T17:30:38.068Z,39.70
2022-08-30T17:33:05.756Z,39.70
2022-08-30T17:35:33.465Z,39.90
2022-08-30T17:38:01.332Z,39.90
2022-08-30T17:40:29.349Z,39.80
2022-08-30T17:42:57.114Z,39.50
2022-08-30T17:45:24.805Z,39.60
2022-08-30T17:47:53.906Z,39.60
2022-08-30T17:50:22.039Z,39.50
2022-08-30T17:52:51.049Z,39.60
2022-08-30T17:55:19.002Z,39.50
2022-08-30T17:57:46.711Z,39.40
2022-08-30T18:00:20.008Z,39.30
2022-08-30T18:02:49.170Z,39.50
2022-08-30T18:05:18.229Z,39.20
2022-08-30T18:07:52.549Z,39.10
2022-08-30T18:10:28.466Z,39.30
2022-08-30T18:13:08.133Z,39.30
2022-08-30T18:15:36.474Z,39.20
2022-08-30T18:18:06.474Z,39.50
2022-08-30T18:20:35.573Z,39.40
2022-08-30T18:23:03.301Z,39.20
2022-08-30T18:25:31.398Z,39.30
2022-08-30T18:27:59.284Z,39.20
2022-08-30T18:30:33.260Z,39.50
2022-08-30T18:33:02.780Z,39.30
2022-08-30T18:35:30.774Z,39.30
2022-08-30T18:37:59.885Z,39.10
2022-08-30T18:40:27.740Z,39.10
2022-08-30T18:42:55.468Z,39.50
2022-08-30T18:45:23.800Z,39.50
2022-08-30T18:47:51.533Z,39.60
2022-08-30T18:50:19.314Z,39.20
2022-08-30T18:52:47.888Z,39.30
2022-08-30T18:55:16.966Z,39.40
2022-08-30T18:57:45.343Z,39.50
2022-08-30T19:00:15.787Z,39.90
2022-08-30T19:02:43.734Z,39.80
2022-08-30T19:05:11.890Z,39.80
2022-08-30T19:07:40.401Z,39.80
2022-08-30T19:10:08.752Z,39.80
2022-08-30T19:12:41.539Z,39.70
2022-08-30T19:15:10.866Z,40.00
2022-08-30T19:17:39.723Z,40.20
2022-08-30T19:20:08.943Z,40.30
2022-08-30T19:23:05.768Z,40.10
2022-08-30T19:25:25.695Z,40.40
2022-08-30T19:27:54.709Z,40.50
2022-08-30T19:30:28.857Z,40.60
2022-08-30T19:32:57.403Z,40.70
2022-08-30T19:35:25.241Z,40.80
2022-08-30T19:37:52.925Z,40.90
2022-08-30T19:40:20.818Z,41.00
2022-08-30T19:42:48.676Z,41.00
2022-08-30T19:45:18.697Z,40.90
2022-08-30T19:47:49.519Z,41.10
2022-08-30T19:50:17.522Z,41.10
2022-08-30T19:52:51.070Z,41.30
2022-08-30T19:55:28.150Z,41.40
2022-08-30T19:57:56.568Z,41.60
2022-08-30T20:00:25.576Z,41.60
2022-08-30T20:02:53.294Z,41.60
2022-08-30T20:05:22.225Z,42.00
2022-08-30T20:07:51.748Z,41.70
2022-08-30T20:10:19.805Z,41.70
2022-08-30T20:12:50.175Z,41.70
2022-08-30T20:15:18.456Z,41.60
2022-08-30T20:18:03.324Z,41.60
2022-08-30T20:20:36.514Z,41.80
2022-08-30T20:23:04.967Z,41.80
2022-08-30T20:25:32.709Z,41.90
2022-08-30T20:28:01.546Z,42.10
2022-08-30T20:30:29.276Z,42.10
2022-08-30T20:32:58.403Z,41.90
2022-08-30T20:35:26.087Z,41.90
2022-08-30T20:37:53.861Z,41.90
2022-08-30T20:40:21.870Z,41.70
2022-08-30T20:42:49.796Z,41.70
2022-08-30T20:45:18.033Z,41.70
2022-08-30T20:47:45.934Z,41.50
2022-08-30T20:50:16.499Z,41.50
2022-08-30T20:52:44.361Z,41.40
2022-08-30T20:55:12.445Z,41.40
2022-08-30T20:57:40.158Z,41.40
2022-08-30T21:00:09.753Z,41.40
2022-08-30T21:02:38.359Z,41.30
2022-08-30T21:05:15.840Z,41.30
2022-08-30T21:07:43.909Z,41.10
2022-08-30T21:10:11.656Z,41.10
2022-08-30T21:12:39.448Z,41.00
2022-08-30T21:15:26.994Z,40.90
2022-08-30T21:17:56.133Z,40.80
2022-08-30T21:20:25.128Z,40.80
2022-08-30T21:22:52.860Z,40.50
2022-08-30T21:25:20.658Z,40.50
2022-08-30T21:27:48.363Z,40.40
2022-08-30T21:30:16.245Z,40.40
2022-08-30T21:32:43.951Z,40.30
2022-08-30T21:35:41.067Z,40.40
2022-08-30T21:38:10.196Z,40.30
2022-08-30T21:40:38.019Z,40.20
2022-08-30T21:43:07.439Z,40.10
2022-08-30T21:45:38.133Z,40.10
2022-08-30T21:48:05.992Z,40.10
2022-08-30T21:50:33.743Z,40.20
2022-08-30T21:53:01.648Z,40.00
2022-08-30T21:55:30.725Z,40.10
2022-08-30T21:57:58.431Z,40.00
2022-08-30T22:00:26.190Z,40.10
2022-08-30T22:02:54.393Z,39.90
2022-08-30T22:05:22.130Z,39.80
2022-08-30T22:07:49.811Z,39.60
2022-08-30T22:10:18.027Z,39.80
2022-08-30T22:12:47.049Z,39.70
2022-08-30T22:15:15.268Z,39.60
2022-08-30T22:17:44.188Z,39.80
2022-08-30T22:20:18.339Z,39.70
2022-08-30T22:22:46.506Z,39.80
2022-08-30T22:25:14.519Z,39.70
2022-08-30T22:27:42.186Z,39.70
2022-08-30T22:30:13.000Z,39.60
2022-08-30T22:32:40.854Z,39.50
2022-08-30T22:35:09.139Z,39.50
2022-08-30T22:37:36.833Z,39.40
2022-08-30T22:40:04.983Z,39.40
2022-08-30T22:42:32.725Z,39.10
2022-08-30T22:45:00.425Z,39.10
2022-08-30T22:47:29.427Z,39.10
2022-08-30T22:49:57.129Z,39.00
2022-08-30T22:52:25.554Z,39.00
2022-08-30T22:54:53.326Z,38.90
2022-08-30T22:57:20.995Z,38.90
2022-08-30T22:59:48.693Z,38.60
2022-08-30T23:02:16.473Z,38.60
2022-08-30T23:04:45.800Z,38.40
2022-08-30T23:07:13.542Z,38.40
2022-08-30T23:09:41.217Z,39.00
2022-08-30T23:12:09.464Z,38.20
2022-08-30T23:14:37.152Z,38.40
2022-08-30T23:17:04.898Z,38.10
2022-08-30T23:19:32.827Z,38.20
2022-08-30T23:22:02.179Z,38.20
2022-08-30T23:24:49.194Z,37.90
2022-08-30T23:27:34.431Z,38.60
2022-08-30T23:30:20.070Z,38.00
2022-08-30T23:33:05.808Z,37.80
2022-08-30T23:35:51.220Z,37.70
2022-08-30T23:38:38.093Z,37.60
2022-08-30T23:41:23.716Z,37.50
2022-08-30T23:44:19.093Z,37.50
2022-08-30T23:47:04.460Z,37.40
2022-08-30T23:49:50.020Z,37.30
2022-08-30T23:52:35.689Z,37.00
2022-08-30T23:55:22.711Z,37.00
2022-08-30T23:58:08.212Z,36.80
